Wright Patterson Air Force Base
KFFO : now visible

Airfield :











YOU CAN JOIN US ON...

 
LOGIN :

Register | Disclaimer

   EN    FR    IT 

 









Legend :    VFR   Marginal VFR   IFR   Intensive IFR   Very Intensive IFR
Visi :
Ceiling :
>= 8 km
>= 3000ft
5 to 8 km
1000 to 3000 ft
1500m to 5 km
500 to 1000 ft
800 to 1500m
200 to 500 ft
< 800m
< 200 ft
Symbols :   Thunderstorms  Fog  Heavy snow  Heavy precipitations  Wind > 20 kt






- Airport Elevation : 823 ft


KFFO - Wright Patterson Air Force Base

CURRENT METAR :
  • 201056Z AUTO 01005KT 6SM -RA BR OVC004 09/08 A3015 RMK AO2 RAE12DZB12E17RAB17E45DZB45E48RAB48 SLP215 P0002 T00850079

EXPIRED METARs :
  • 201036Z AUTO 03004KT 4SM -RA BR OVC004 08/08 A3014 RMK AO2 RAE12DZB12E17RAB17 SLP212
  • 201026Z AUTO 02005KT 4SM -RA BR OVC005 09/08 A3013 RMK AO2 RAE12DZB12E17RAB17 SLP208
  • 201006Z AUTO 02006KT 10SM -RA OVC004 08/08 A3013 RMK AO2 SLP209
  • 200956Z AUTO 01007KT 6SM -RA BR OVC003 08/08 A3012 RMK AO2 CIG 003V005 SLP205 P0005 T00840076
  • 200926Z AUTO 01005KT 9SM -RA BKN004 OVC008 09/08 A3012 RMK AO2 CIG 004V006 SLP205
  • 200916Z AUTO 03008KT 10SM -RA OVC006 09/08 A3012 RMK AO2 CIG 004V006 CIG 005 RWY05L SLP205
  • 200856Z AUTO 03007KT 8SM RA BKN004 OVC018 09/08 A3011 RMK AO2 BKN V OVC SLP201 P0010 60022 T00870081 50003
  • 200826Z AUTO 36008KT 6SM RA BR OVC004 09/08 A3011 RMK AO2 SLP201
  • 200806Z AUTO 04007KT 9SM -RA OVC005 09/08 A3010 RMK AO2 CIG 004 RWY05L SLP198

TAF TAF KFFO
Valid from the 20 at 03:00 until the 21 at 09:00 UTC


200300Z 2003/2109 03006KT 6000 -SHRA BR OVC003 QNH3009INS
BECMG 2007/2008 03006KT 1600 -DZ BR OVC003 QNH3009INS
BECMG 2017/2018 07009KT 6000 BR OVC007 QNH3010INS
BECMG 2101/2102 VRB06KT 4800 BR OVC006 QNH3009INS TX16/2023Z TN09/2013Z
KZID FIR / North America



MET'MAP, your aeronautical weather chart ! - Copyright ORBIFLY December 2007 - Disclaimer

ORBIFLY MET'MAP TEAM :

Programming & Development : Alexandra Zaïnal
Concept & original design : Baudouin d'Aumeries
Assistance for programming : Marc-Olivier Méhu
Technical & hardware support : Manuel Goepfert

Contact : metmap@orbifly.com




SOURCES & CREDITS :

   NOAA       Earth
Advisory